Create Custom Reports and Graphics: Custom Report

Siberia 8700'

Squaw Valley

11/26/20 5:00 AM (-08:00)
Updated Every 15 Minutes
Temp 12.1 °F   12.5
RH 94 %   6
Wet Bulb 11.7 °F   11.7
Dew Pt 10.6 °F   10.8
Wind Dir E | 80 °
Wind Spd 45.7 mph   3.2
Wind Gust 59.5 mph   4.8
WindChill -12.9 °F   17.1
Daily Min Temp 12.0 °F   12.5
Daily Max Temp 14.3 °F   13.4

Last 24 Hours

Squaw-Siberia 8700'

Hourly Data | America/Los_Angeles
as of 11/26/20 5:12 AM PST
Date & Time Temp (°F) RH (%) Dew Pt (°F) Wet Bulb (°F) Wind Dir (°) Wind Spd (mph) Wind Gust (mph) WindChill (°F) Daily Min Temp (°F) Daily Max Temp (°F)
11/26/20 - 0500 12.1 94 10.6 11.7 ENE | 77 42.0 61.8 -11.4 12.0 14.3
11/26/20 - 0400 12.4 94 10.9 12.0 ENE | 76 32.0 48.5 -9.1 12.3 14.3
11/26/20 - 0300 13.0 94 11.6 12.6 ENE | 77 23.3 31.8 -5.7 13.0 14.3
11/26/20 - 0200 13.5 94 12.1 13.1 ENE | 75 27.6 40.4 -6.7 13.1 14.3
11/26/20 - 0100 13.8 94 12.4 13.4 ENE | 74 26.7 39.5 -5.9 13.6 14.3
11/26/20 - 0000 14.3 95 13.0 13.9 ENE | 75 31.7 44.4 -6.5 14.1 27.8
11/25/20 - 2300 14.9 95 13.7 14.5 ENE | 73 27.7 40.4 -4.9 14.6 27.8
11/25/20 - 2200 15.1 94 13.8 14.7 ENE | 69 23.2 35.2 -2.2 15.1 27.8
11/25/20 - 2100 16.4 95 15.2 16.0 ENE | 67 24.4 34.0 -0.9 16.0 27.8
11/25/20 - 2000 18.4 96 17.5 18.1 ENE | 66 15.7 25.5 5.0 18.4 27.8
11/25/20 - 1900 20.0 98 19.5 19.9 N | 356 5.9 13.8 13.3 19.5 27.8
11/25/20 - 1800 20.8 98 20.3 20.6 W | 269 9.9 14.8 10.5 20.8 27.8
11/25/20 - 1700 21.5 97 20.9 21.3 WSW | 248 7.7 14.3 13.8 21.5 27.8
11/25/20 - 1600 22.7 89 19.9 21.7 WSW | 250 20.0 31.4 8.1 22.3 27.8
11/25/20 - 1500 23.1 91 20.9 22.3 WSW | 256 27.6 37.3 6.9 22.3 27.8
11/25/20 - 1400 23.5 88 20.4 22.3 WSW | 256 27.9 42.1 6.2 22.3 27.8
11/25/20 - 1300 23.5 96 22.6 23.1 WSW | 238 31.8 50.9 5.5 22.3 27.8
11/25/20 - 1200 22.7 97 21.9 22.4 WSW | 240 41.0 60.2 3.3 22.6 27.8
11/25/20 - 1100 23.2 97 22.5 22.9 WSW | 245 48.9 67.0 2.3 22.8 27.8
11/25/20 - 1000 23.4 97 22.7 23.1 WSW | 237 47.8 68.0 2.3 22.8 27.8
11/25/20 - 0900 23.2 97 22.6 23.0 WSW | 243 45.7 63.7 2.4 22.8 27.8
11/25/20 - 0800 23.0 97 22.4 22.8 SW | 235 46.0 63.2 2.3 22.9 27.8
11/25/20 - 0700 23.2 92 21.1 22.4 SW | 236 46.9 62.0 2.7 23.2 27.8
11/25/20 - 0600 23.6 89 21.0 22.6 WSW | 238 47.4 68.8 3.5 23.5 27.8
11/25/20 - 0500 24.6 87 21.3 23.4 WSW | 240 46.7 64.3 4.6 24.5 27.8
Max 24.6 98 22.7 23.4 - 48.9 68.8 13.8 24.5 27.8
Avg 19.4 94 18.0 19.0 - 31.0 44.9 1.6 - -
Min 12.1 87 10.6 11.7 - 5.9 13.8 -11.4 12.0 14.3

Last 30 Days

Squaw-Siberia 8700'

Daily Data | America/Los_Angeles
as of 11/26/20 5:12 AM PST
Date Daily Max Temp (°F) Time of Max Temp Daily Min Temp (°F) Time of Min Temp Wind Spd (mph) Daily Max Wind (mph) Time of Max Wind Max Wind Dir (°) Wet Bulb (°F) WetB Hrs <28F (hrs)
11/25/20 27.8 0001 14.1 2335 34.9 78.4 0245 WSW | 252 21.5 24.0
11/24/20 43.2 1415 22.7 0002 17.6 65.1 2340 SW | 229 27.2 13.3
11/23/20 34.1 1353 21.4 2222 13.0 42.0 0011 WSW | 257 23.9 23.8
11/22/20 39.9 0001 23.4 2212 28.6 77.1 2110 W | 268 26.5 16.5
11/21/20 40.4 2305 31.4 1938 11.9 30.1 1910 ENE | 67 26.3 21.6
11/20/20 36.4 2123 22.6 0622 8.4 17.9 2106 SSW | 207 27.3 11.1
11/19/20 28.0 1140 17.9 0713 17.6 59.3 0002 SW | 231 22.5 24.0
11/18/20 29.5 1111 22.7 2358 50.8 107.5 1809 SW | 231 26.4 18.2
11/17/20 43.3 0011 25.7 2356 56.2 101.8 0537 SW | 226 28.8 8.7
11/16/20 53.7 1356 37.3 0014 24.8 79.9 2309 WSW | 258 33.2 0.0
11/15/20 39.3 2251 27.8 0020 34.6 70.0 0720 W | 262 27.8 9.1
11/14/20 30.3 1429 18.0 0357 28.5 72.1 2220 WSW | 239 22.0 24.0
11/13/20 28.0 1903 20.6 0919 60.6 119.3 1558 WNW | 283 23.4 24.0
11/12/20 34.3 1158 24.6 2347 26.9 62.5 2320 WNW | 287 20.9 24.0
11/11/20 32.2 1405 22.3 0327 18.1 48.3 1145 WSW | 242 20.1 24.0
11/10/20 35.9 1104 20.6 0633 21.7 39.1 0610 NE | 52 22.5 24.0
11/9/20 26.3 2355 9.0 0251 14.7 42.6 2114 ENE | 71 15.6 24.0
11/8/20 18.5 0001 9.4 2334 24.6 83.9 0113 WSW | 243 11.8 24.0
11/7/20 21.6 1055 13.5 0625 22.4 77.8 2224 SSW | 197 17.2 24.0
11/6/20 42.1 0001 16.1 2337 37.6 93.3 0623 SW | 217 24.9 14.7
11/5/20 61.8 1211 41.7 2346 15.4 49.2 2340 SSW | 200 36.9 0.0
11/4/20 57.6 1303 41.8 0518 15.5 27.7 0709 SW | 221 36.0 0.0
11/3/20 56.0 1321 44.3 2010 18.2 36.3 1353 WNW | 301 34.7 0.0
11/2/20 60.9 1413 46.6 2349 6.0 27.4 1634 WSW | 244 36.7 0.0
11/1/20 62.0 1249 48.1 0048 6.3 25.8 1506 SSW | 206 36.9 0.0
10/31/20 60.4 1604 44.9 0531 8.0 23.3 2247 E | 83 35.7 0.0
10/30/20 57.8 1338 44.9 0609 10.1 29.8 1626 SW | 233 34.6 0.0
10/29/20 53.9 1406 45.3 0550 15.1 31.2 0057 E | 100 33.0 0.0
10/28/20 55.1 1306 38.2 0126 22.2 47.7 0013 ESE | 102 32.6 0.0
10/27/20 44.9 1633 24.0 0625 43.6 72.8 1107 ENE | 70 27.0 9.6
Max 62.0 - 48.1 - 60.6 119.3 - - 36.9 24.0
Avg - - - - 23.8 - - - 27.1 -
Min 18.5 - 9.0 - 6.0 17.9 - - 11.8 0.0
Calm: 0.0%
Calm: 0.0%